sensor_id;sensor_type;location;lat;lon;timestamp;pressure;altitude;pressure_sealevel;temperature;humidity
6218;BME280;3142;48.206;11.550;2023-02-12T00:00:56;97592.38;;;6.18;63.34
6218;BME280;3142;48.206;11.550;2023-02-12T00:03:24;97593.22;;;6.28;63.14
6218;BME280;3142;48.206;11.550;2023-02-12T00:05:51;97594.19;;;6.27;62.59
6218;BME280;3142;48.206;11.550;2023-02-12T00:08:17;97592.97;;;6.10;63.36
6218;BME280;3142;48.206;11.550;2023-02-12T00:10:44;97591.59;;;6.06;63.67
6218;BME280;3142;48.206;11.550;2023-02-12T00:13:11;97586.94;;;6.10;63.76
6218;BME280;3142;48.206;11.550;2023-02-12T00:15:39;97586.22;;;6.19;63.99
6218;BME280;3142;48.206;11.550;2023-02-12T00:18:06;97589.69;;;6.29;63.47
6218;BME280;3142;48.206;11.550;2023-02-12T00:20:35;97589.31;;;6.34;63.48
6218;BME280;3142;48.206;11.550;2023-02-12T00:23:02;97591.66;;;6.37;62.90
6218;BME280;3142;48.206;11.550;2023-02-12T00:25:29;97595.09;;;6.37;63.29
6218;BME280;3142;48.206;11.550;2023-02-12T00:27:55;97594.97;;;6.39;62.97
6218;BME280;3142;48.206;11.550;2023-02-12T00:30:22;97596.88;;;6.37;62.83
6218;BME280;3142;48.206;11.550;2023-02-12T00:32:48;97592.06;;;6.32;63.50
6218;BME280;3142;48.206;11.550;2023-02-12T00:35:15;97598.22;;;6.31;63.10
6218;BME280;3142;48.206;11.550;2023-02-12T00:37:43;97591.22;;;6.32;63.12
6218;BME280;3142;48.206;11.550;2023-02-12T00:40:09;97595.84;;;6.28;63.30
6218;BME280;3142;48.206;11.550;2023-02-12T00:42:36;97596.53;;;6.30;63.57
6218;BME280;3142;48.206;11.550;2023-02-12T00:45:03;97593.56;;;6.35;63.24
6218;BME280;3142;48.206;11.550;2023-02-12T00:47:29;97592.75;;;6.34;63.64
6218;BME280;3142;48.206;11.550;2023-02-12T00:49:56;97587.28;;;6.37;63.64
6218;BME280;3142;48.206;11.550;2023-02-12T00:52:22;97587.41;;;6.36;63.43
6218;BME280;3142;48.206;11.550;2023-02-12T00:54:50;97604.94;;;6.34;63.21
6218;BME280;3142;48.206;11.550;2023-02-12T00:57:16;97602.81;;;6.28;63.42
6218;BME280;3142;48.206;11.550;2023-02-12T00:59:43;97607.06;;;6.29;63.54
6218;BME280;3142;48.206;11.550;2023-02-12T01:02:09;97601.38;;;6.35;63.75
6218;BME280;3142;48.206;11.550;2023-02-12T01:04:35;97590.97;;;6.35;63.72
6218;BME280;3142;48.206;11.550;2023-02-12T01:07:02;97594.66;;;6.32;63.43
6218;BME280;3142;48.206;11.550;2023-02-12T01:09:28;97600.34;;;6.26;63.84
6218;BME280;3142;48.206;11.550;2023-02-12T01:11:56;97591.03;;;6.23;63.57
6218;BME280;3142;48.206;11.550;2023-02-12T01:14:22;97598.56;;;6.27;63.49
6218;BME280;3142;48.206;11.550;2023-02-12T01:16:49;97596.53;;;6.30;63.30
6218;BME280;3142;48.206;11.550;2023-02-12T01:19:15;97595.16;;;6.26;63.55
6218;BME280;3142;48.206;11.550;2023-02-12T01:21:42;97601.84;;;6.29;63.74
6218;BME280;3142;48.206;11.550;2023-02-12T01:24:08;97598.69;;;6.25;63.80
6218;BME280;3142;48.206;11.550;2023-02-12T01:26:35;97594.31;;;6.26;63.77
6218;BME280;3142;48.206;11.550;2023-02-12T01:29:05;97601.72;;;6.30;63.63
6218;BME280;3142;48.206;11.550;2023-02-12T01:31:34;97609.16;;;6.35;63.42
6218;BME280;3142;48.206;11.550;2023-02-12T01:34:02;97603.72;;;6.38;63.38
6218;BME280;3142;48.206;11.550;2023-02-12T01:36:30;97607.84;;;6.40;63.28
6218;BME280;3142;48.206;11.550;2023-02-12T01:38:57;97602.88;;;6.37;63.11
6218;BME280;3142;48.206;11.550;2023-02-12T01:41:25;97608.34;;;6.34;63.30
6218;BME280;3142;48.206;11.550;2023-02-12T01:44:11;97608.59;;;6.31;63.74
6218;BME280;3142;48.206;11.550;2023-02-12T01:46:39;97600.56;;;6.34;62.93
6218;BME280;3142;48.206;11.550;2023-02-12T01:49:08;97602.31;;;6.34;63.17
6218;BME280;3142;48.206;11.550;2023-02-12T01:51:35;97596.66;;;6.29;62.86
6218;BME280;3142;48.206;11.550;2023-02-12T01:54:05;97599.13;;;6.30;62.85
6218;BME280;3142;48.206;11.550;2023-02-12T01:56:32;97592.22;;;6.19;63.30
6218;BME280;3142;48.206;11.550;2023-02-12T01:58:59;97592.41;;;6.28;63.24
6218;BME280;3142;48.206;11.550;2023-02-12T02:01:28;97595.72;;;6.30;63.29
6218;BME280;3142;48.206;11.550;2023-02-12T02:03:58;97598.78;;;6.35;62.88
6218;BME280;3142;48.206;11.550;2023-02-12T02:06:27;97592.88;;;6.33;63.16
6218;BME280;3142;48.206;11.550;2023-02-12T02:08:55;97595.34;;;6.34;62.91
6218;BME280;3142;48.206;11.550;2023-02-12T02:11:22;97597.94;;;6.34;63.39
6218;BME280;3142;48.206;11.550;2023-02-12T02:14:06;97598.44;;;6.28;63.45
6218;BME280;3142;48.206;11.550;2023-02-12T02:16:59;97585.81;;;6.23;63.61
6218;BME280;3142;48.206;11.550;2023-02-12T02:19:43;97585.97;;;6.22;63.89
6218;BME280;3142;48.206;11.550;2023-02-12T02:22:25;97583.09;;;6.25;63.66
6218;BME280;3142;48.206;11.550;2023-02-12T02:25:23;97582.78;;;6.18;63.62
6218;BME280;3142;48.206;11.550;2023-02-12T02:28:02;97566.94;;;6.21;63.77
6218;BME280;3142;48.206;11.550;2023-02-12T02:30:39;97571.31;;;6.21;63.48
6218;BME280;3142;48.206;11.550;2023-02-12T02:33:26;97569.66;;;6.20;63.82
6218;BME280;3142;48.206;11.550;2023-02-12T02:36:03;97572.63;;;6.15;63.88
6218;BME280;3142;48.206;11.550;2023-02-12T02:38:39;97566.47;;;6.16;64.04
6218;BME280;3142;48.206;11.550;2023-02-12T02:41:10;97576.78;;;6.18;64.33
6218;BME280;3142;48.206;11.550;2023-02-12T02:43:43;97572.53;;;6.17;64.21
6218;BME280;3142;48.206;11.550;2023-02-12T02:46:17;97577.59;;;6.18;64.39
6218;BME280;3142;48.206;11.550;2023-02-12T02:48:49;97573.34;;;6.17;64.87
6218;BME280;3142;48.206;11.550;2023-02-12T02:51:19;97567.56;;;6.14;64.64
6218;BME280;3142;48.206;11.550;2023-02-12T02:53:50;97568.50;;;6.13;64.83
6218;BME280;3142;48.206;11.550;2023-02-12T02:56:21;97573.56;;;6.14;64.88
6218;BME280;3142;48.206;11.550;2023-02-12T02:58:52;97573.13;;;6.09;64.87
6218;BME280;3142;48.206;11.550;2023-02-12T03:01:24;97591.91;;;6.13;64.57
6218;BME280;3142;48.206;11.550;2023-02-12T03:03:58;97592.97;;;6.10;64.89
6218;BME280;3142;48.206;11.550;2023-02-12T03:06:31;97590.38;;;6.10;64.98
6218;BME280;3142;48.206;11.550;2023-02-12T03:09:10;97588.84;;;6.08;65.01
6218;BME280;3142;48.206;11.550;2023-02-12T03:11:38;97583.53;;;6.09;65.26
6218;BME280;3142;48.206;11.550;2023-02-12T03:14:08;97582.91;;;6.17;64.82
6218;BME280;3142;48.206;11.550;2023-02-12T03:16:40;97582.19;;;6.15;64.95
6218;BME280;3142;48.206;11.550;2023-02-12T03:19:12;97587.88;;;6.20;64.83
6218;BME280;3142;48.206;11.550;2023-02-12T03:21:45;97590.91;;;6.25;64.48
6218;BME280;3142;48.206;11.550;2023-02-12T03:24:18;97599.50;;;6.26;64.33
6218;BME280;3142;48.206;11.550;2023-02-12T03:26:50;97592.94;;;6.21;64.65
6218;BME280;3142;48.206;11.550;2023-02-12T03:29:17;97594.56;;;6.22;64.15
6218;BME280;3142;48.206;11.550;2023-02-12T03:31:54;97595.53;;;6.21;64.25
6218;BME280;3142;48.206;11.550;2023-02-12T03:34:29;97606.19;;;6.18;64.39
6218;BME280;3142;48.206;11.550;2023-02-12T03:37:05;97603.44;;;6.20;64.56
6218;BME280;3142;48.206;11.550;2023-02-12T03:39:37;97603.59;;;6.18;64.06
6218;BME280;3142;48.206;11.550;2023-02-12T03:42:11;97601.09;;;6.17;64.32
6218;BME280;3142;48.206;11.550;2023-02-12T03:44:46;97600.38;;;6.15;63.92
6218;BME280;3142;48.206;11.550;2023-02-12T03:47:22;97605.84;;;6.12;64.25
6218;BME280;3142;48.206;11.550;2023-02-12T03:49:59;97605.13;;;6.10;64.41
6218;BME280;3142;48.206;11.550;2023-02-12T03:52:28;97601.84;;;6.08;65.02
6218;BME280;3142;48.206;11.550;2023-02-12T03:54:55;97599.38;;;6.06;64.68
6218;BME280;3142;48.206;11.550;2023-02-12T03:57:24;97602.41;;;6.11;64.73
6218;BME280;3142;48.206;11.550;2023-02-12T03:59:55;97615.03;;;6.16;64.60
6218;BME280;3142;48.206;11.550;2023-02-12T04:02:23;97602.41;;;6.11;64.71
6218;BME280;3142;48.206;11.550;2023-02-12T04:04:50;97610.59;;;6.07;65.12
6218;BME280;3142;48.206;11.550;2023-02-12T04:07:17;97615.28;;;6.13;65.22
6218;BME280;3142;48.206;11.550;2023-02-12T04:09:43;97624.97;;;6.11;65.02
6218;BME280;3142;48.206;11.550;2023-02-12T04:12:32;97622.13;;;6.14;65.10
6218;BME280;3142;48.206;11.550;2023-02-12T04:15:12;97623.47;;;6.08;65.24
6218;BME280;3142;48.206;11.550;2023-02-12T04:17:49;97621.31;;;6.13;65.64
6218;BME280;3142;48.206;11.550;2023-02-12T04:20:22;97622.94;;;6.14;65.44
6218;BME280;3142;48.206;11.550;2023-02-12T04:22:55;97626.25;;;6.16;65.77
6218;BME280;3142;48.206;11.550;2023-02-12T04:25:37;97630.75;;;6.14;66.04
6218;BME280;3142;48.206;11.550;2023-02-12T04:28:11;97622.25;;;6.12;65.93
6218;BME280;3142;48.206;11.550;2023-02-12T04:30:44;97623.91;;;6.13;65.88
6218;BME280;3142;48.206;11.550;2023-02-12T04:33:17;97624.97;;;6.11;66.22
6218;BME280;3142;48.206;11.550;2023-02-12T04:35:48;97627.97;;;6.06;66.38
6218;BME280;3142;48.206;11.550;2023-02-12T04:38:19;97631.63;;;6.04;66.55
6218;BME280;3142;48.206;11.550;2023-02-12T04:40:48;97632.47;;;6.04;66.00
6218;BME280;3142;48.206;11.550;2023-02-12T04:43:25;97635.75;;;6.06;66.12
6218;BME280;3142;48.206;11.550;2023-02-12T04:45:52;97641.91;;;6.05;66.48
6218;BME280;3142;48.206;11.550;2023-02-12T04:48:20;97640.13;;;6.06;66.33
6218;BME280;3142;48.206;11.550;2023-02-12T04:50:46;97644.38;;;6.07;66.88
6218;BME280;3142;48.206;11.550;2023-02-12T04:53:14;97640.44;;;6.12;66.56
6218;BME280;3142;48.206;11.550;2023-02-12T04:55:41;97641.38;;;6.11;66.54
6218;BME280;3142;48.206;11.550;2023-02-12T04:58:07;97645.75;;;6.11;66.87
6218;BME280;3142;48.206;11.550;2023-02-12T05:00:33;97644.13;;;6.10;67.09
6218;BME280;3142;48.206;11.550;2023-02-12T05:03:00;97640.94;;;6.06;67.10
6218;BME280;3142;48.206;11.550;2023-02-12T05:05:28;97641.38;;;6.11;67.03
6218;BME280;3142;48.206;11.550;2023-02-12T05:07:54;97634.66;;;6.09;67.16
6218;BME280;3142;48.206;11.550;2023-02-12T05:10:21;97636.69;;;6.05;67.18
6218;BME280;3142;48.206;11.550;2023-02-12T05:12:50;97644.50;;;6.05;67.40
6218;BME280;3142;48.206;11.550;2023-02-12T05:15:17;97647.31;;;6.02;67.59
6218;BME280;3142;48.206;11.550;2023-02-12T05:17:43;97650.72;;;6.03;67.74
6218;BME280;3142;48.206;11.550;2023-02-12T05:20:10;97651.34;;;6.06;67.70
6218;BME280;3142;48.206;11.550;2023-02-12T05:22:38;97652.63;;;6.01;67.89
6218;BME280;3142;48.206;11.550;2023-02-12T05:25:05;97649.22;;;6.00;68.27
6218;BME280;3142;48.206;11.550;2023-02-12T05:27:32;97651.22;;;6.08;68.15
6218;BME280;3142;48.206;11.550;2023-02-12T05:29:58;97657.34;;;6.07;68.11
6218;BME280;3142;48.206;11.550;2023-02-12T05:32:25;97663.13;;;6.10;68.26
6218;BME280;3142;48.206;11.550;2023-02-12T05:34:51;97675.19;;;6.00;68.31
6218;BME280;3142;48.206;11.550;2023-02-12T05:37:18;97675.53;;;6.07;68.72
6218;BME280;3142;48.206;11.550;2023-02-12T05:39:47;97682.38;;;6.08;69.18
6218;BME280;3142;48.206;11.550;2023-02-12T05:42:14;97673.53;;;6.10;69.36
6218;BME280;3142;48.206;11.550;2023-02-12T05:44:40;97673.75;;;6.18;69.10
6218;BME280;3142;48.206;11.550;2023-02-12T05:47:06;97670.06;;;6.21;69.02
6218;BME280;3142;48.206;11.550;2023-02-12T05:49:33;97674.34;;;6.11;69.39
6218;BME280;3142;48.206;11.550;2023-02-12T05:51:59;97669.84;;;6.13;69.82
6218;BME280;3142;48.206;11.550;2023-02-12T05:54:26;97664.66;;;6.13;71.07
6218;BME280;3142;48.206;11.550;2023-02-12T05:56:53;97670.91;;;6.10;71.84
6218;BME280;3142;48.206;11.550;2023-02-12T05:59:21;97666.94;;;6.06;72.24
6218;BME280;3142;48.206;11.550;2023-02-12T06:01:50;97673.19;;;6.04;73.19
6218;BME280;3142;48.206;11.550;2023-02-12T06:04:18;97666.56;;;6.00;72.80
6218;BME280;3142;48.206;11.550;2023-02-12T06:06:45;97670.13;;;5.99;73.17
6218;BME280;3142;48.206;11.550;2023-02-12T06:09:13;97670.25;;;5.97;73.59
6218;BME280;3142;48.206;11.550;2023-02-12T06:11:39;97673.91;;;5.94;73.85
6218;BME280;3142;48.206;11.550;2023-02-12T06:14:10;97675.69;;;5.94;73.83
6218;BME280;3142;48.206;11.550;2023-02-12T06:16:37;97674.75;;;5.95;74.48
6218;BME280;3142;48.206;11.550;2023-02-12T06:19:05;97680.75;;;5.96;74.25
6218;BME280;3142;48.206;11.550;2023-02-12T06:21:32;97677.34;;;5.95;74.59
6218;BME280;3142;48.206;11.550;2023-02-12T06:23:59;97683.63;;;5.92;74.98
6218;BME280;3142;48.206;11.550;2023-02-12T06:26:26;97678.41;;;5.92;75.17
6218;BME280;3142;48.206;11.550;2023-02-12T06:28:52;97685.38;;;5.92;75.63
6218;BME280;3142;48.206;11.550;2023-02-12T06:31:23;97686.78;;;5.85;75.53
6218;BME280;3142;48.206;11.550;2023-02-12T06:33:50;97688.78;;;5.81;75.34
6218;BME280;3142;48.206;11.550;2023-02-12T06:36:17;97691.97;;;5.74;75.83
6218;BME280;3142;48.206;11.550;2023-02-12T06:38:44;97698.59;;;5.67;76.56
6218;BME280;3142;48.206;11.550;2023-02-12T06:41:11;97699.44;;;5.67;76.62
6218;BME280;3142;48.206;11.550;2023-02-12T06:43:38;97699.44;;;5.67;76.48
6218;BME280;3142;48.206;11.550;2023-02-12T06:46:05;97703.56;;;5.70;77.03
6218;BME280;3142;48.206;11.550;2023-02-12T06:48:33;97700.97;;;5.70;77.23
6218;BME280;3142;48.206;11.550;2023-02-12T06:51:04;97699.44;;;5.67;77.43
6218;BME280;3142;48.206;11.550;2023-02-12T06:53:32;97707.09;;;5.69;77.44
6218;BME280;3142;48.206;11.550;2023-02-12T06:55:59;97703.69;;;5.68;77.78
6218;BME280;3142;48.206;11.550;2023-02-12T06:58:25;97705.19;;;5.71;77.74
6218;BME280;3142;48.206;11.550;2023-02-12T07:00:52;97703.69;;;5.68;77.65
6218;BME280;3142;48.206;11.550;2023-02-12T07:03:18;97700.50;;;5.64;77.64
6218;BME280;3142;48.206;11.550;2023-02-12T07:05:46;97696.97;;;5.65;77.40
6218;BME280;3142;48.206;11.550;2023-02-12T07:08:13;97704.88;;;5.64;78.21
6218;BME280;3142;48.206;11.550;2023-02-12T07:10:39;97701.09;;;5.57;77.97
6218;BME280;3142;48.206;11.550;2023-02-12T07:13:06;97697.09;;;5.53;78.47
6218;BME280;3142;48.206;11.550;2023-02-12T07:15:32;97705.56;;;5.66;78.74
6218;BME280;3142;48.206;11.550;2023-02-12T07:17:59;97701.53;;;5.73;78.05
6218;BME280;3142;48.206;11.550;2023-02-12T07:20:25;97703.56;;;5.70;79.03
6218;BME280;3142;48.206;11.550;2023-02-12T07:22:53;97702.84;;;5.68;78.96
6218;BME280;3142;48.206;11.550;2023-02-12T07:25:19;97695.19;;;5.66;78.98
6218;BME280;3142;48.206;11.550;2023-02-12T07:27:46;97700.97;;;5.70;78.75
6218;BME280;3142;48.206;11.550;2023-02-12T07:30:13;97707.09;;;5.69;79.02
6218;BME280;3142;48.206;11.550;2023-02-12T07:32:39;97704.63;;;5.67;79.16
6218;BME280;3142;48.206;11.550;2023-02-12T07:35:07;97694.13;;;5.69;79.34
6218;BME280;3142;48.206;11.550;2023-02-12T07:37:33;97697.53;;;5.69;79.53
6218;BME280;3142;48.206;11.550;2023-02-12T07:40:01;97694.81;;;5.71;79.65
6218;BME280;3142;48.206;11.550;2023-02-12T07:42:27;97696.47;;;5.72;79.51
6218;BME280;3142;48.206;11.550;2023-02-12T07:44:54;97700.50;;;5.76;79.30
6218;BME280;3142;48.206;11.550;2023-02-12T07:47:20;97693.53;;;5.76;79.50
6218;BME280;3142;48.206;11.550;2023-02-12T07:49:47;97686.56;;;5.77;79.32
6218;BME280;3142;48.206;11.550;2023-02-12T07:52:13;97697.53;;;5.80;79.17
6218;BME280;3142;48.206;11.550;2023-02-12T07:54:40;97704.38;;;5.81;79.28
6218;BME280;3142;48.206;11.550;2023-02-12T07:57:07;97694.44;;;5.86;79.52
6218;BME280;3142;48.206;11.550;2023-02-12T07:59:34;97694.34;;;5.77;79.68
6218;BME280;3142;48.206;11.550;2023-02-12T08:02:00;97700.81;;;5.82;79.87
6218;BME280;3142;48.206;11.550;2023-02-12T08:04:27;97703.06;;;5.87;79.58
6218;BME280;3142;48.206;11.550;2023-02-12T08:06:54;97700.03;;;5.93;79.84
6218;BME280;3142;48.206;11.550;2023-02-12T08:09:24;97693.50;;;5.99;79.38
6218;BME280;3142;48.206;11.550;2023-02-12T08:11:51;97695.97;;;6.00;79.65
6218;BME280;3142;48.206;11.550;2023-02-12T08:14:20;97697.19;;;5.96;79.54
6218;BME280;3142;48.206;11.550;2023-02-12T08:16:48;97699.78;;;5.96;79.60
6218;BME280;3142;48.206;11.550;2023-02-12T08:19:15;97694.56;;;5.96;79.45
6218;BME280;3142;48.206;11.550;2023-02-12T08:21:41;97690.91;;;5.99;79.48
6218;BME280;3142;48.206;11.550;2023-02-12T08:24:08;97689.84;;;6.01;79.47
6218;BME280;3142;48.206;11.550;2023-02-12T08:26:37;97691.38;;;6.04;79.85
6218;BME280;3142;48.206;11.550;2023-02-12T08:29:05;97698.22;;;6.05;79.92
6218;BME280;3142;48.206;11.550;2023-02-12T08:31:34;97692.09;;;6.06;80.19
6218;BME280;3142;48.206;11.550;2023-02-12T08:34:01;97691.00;;;6.08;80.14
6218;BME280;3142;48.206;11.550;2023-02-12T08:36:29;97691.00;;;6.08;80.68
6218;BME280;3142;48.206;11.550;2023-02-12T08:38:57;97691.13;;;6.18;80.51
6218;BME280;3142;48.206;11.550;2023-02-12T08:41:26;97694.97;;;6.23;80.27
6218;BME280;3142;48.206;11.550;2023-02-12T08:43:55;97694.25;;;6.33;80.51
6218;BME280;3142;48.206;11.550;2023-02-12T08:46:23;97694.31;;;6.42;80.43
6218;BME280;3142;48.206;11.550;2023-02-12T08:48:53;97687.56;;;6.51;80.29
6218;BME280;3142;48.206;11.550;2023-02-12T08:51:22;97686.00;;;6.60;80.39
6218;BME280;3142;48.206;11.550;2023-02-12T08:53:52;97685.53;;;6.75;80.25
6218;BME280;3142;48.206;11.550;2023-02-12T08:56:19;97679.13;;;6.79;79.99
6218;BME280;3142;48.206;11.550;2023-02-12T08:58:46;97682.56;;;6.80;80.20
6218;BME280;3142;48.206;11.550;2023-02-12T09:01:14;97685.50;;;6.87;79.80
6218;BME280;3142;48.206;11.550;2023-02-12T09:03:41;97689.34;;;6.92;79.98
6218;BME280;3142;48.206;11.550;2023-02-12T09:06:10;97689.56;;;7.00;80.04
6218;BME280;3142;48.206;11.550;2023-02-12T09:08:37;97691.09;;;7.12;80.00
6218;BME280;3142;48.206;11.550;2023-02-12T09:11:05;97693.63;;;7.24;78.78
6218;BME280;3142;48.206;11.550;2023-02-12T09:13:32;97686.84;;;7.32;78.58
6218;BME280;3142;48.206;11.550;2023-02-12T09:16:00;97684.97;;;7.44;78.33
6218;BME280;3142;48.206;11.550;2023-02-12T09:18:27;97692.94;;;7.52;77.51
6218;BME280;3142;48.206;11.550;2023-02-12T09:20:54;97696.00;;;7.57;77.77
6218;BME280;3142;48.206;11.550;2023-02-12T09:23:21;97690.94;;;7.65;76.85
6218;BME280;3142;48.206;11.550;2023-02-12T09:25:48;97694.91;;;7.60;77.06
6218;BME280;3142;48.206;11.550;2023-02-12T09:28:14;97698.31;;;7.60;77.04
6218;BME280;3142;48.206;11.550;2023-02-12T09:30:41;97696.16;;;7.65;76.86
6218;BME280;3142;48.206;11.550;2023-02-12T09:33:10;97695.09;;;7.68;76.61
6218;BME280;3142;48.206;11.550;2023-02-12T09:35:37;97697.94;;;7.65;76.24
6218;BME280;3142;48.206;11.550;2023-02-12T09:38:05;97699.03;;;7.62;76.69
6218;BME280;3142;48.206;11.550;2023-02-12T09:40:39;97694.22;;;7.67;77.15
6218;BME280;3142;48.206;11.550;2023-02-12T09:43:16;97698.25;;;7.71;76.77
6218;BME280;3142;48.206;11.550;2023-02-12T09:45:48;97705.38;;;7.79;76.14
6218;BME280;3142;48.206;11.550;2023-02-12T09:48:31;97693.63;;;7.85;75.32
6218;BME280;3142;48.206;11.550;2023-02-12T09:51:02;97683.88;;;7.87;75.92
6218;BME280;3142;48.206;11.550;2023-02-12T09:53:34;97692.25;;;7.90;75.98
6218;BME280;3142;48.206;11.550;2023-02-12T09:56:10;97687.72;;;7.92;76.55
6218;BME280;3142;48.206;11.550;2023-02-12T09:58:41;97700.91;;;8.00;76.02
6218;BME280;3142;48.206;11.550;2023-02-12T10:01:10;97690.78;;;7.97;76.67
6218;BME280;3142;48.206;11.550;2023-02-12T10:03:38;97692.69;;;8.05;75.65
6218;BME280;3142;48.206;11.550;2023-02-12T10:06:06;97691.34;;;8.11;75.33
6218;BME280;3142;48.206;11.550;2023-02-12T10:08:45;97697.53;;;8.10;75.53
6218;BME280;3142;48.206;11.550;2023-02-12T10:11:32;97700.00;;;8.11;73.95
6218;BME280;3142;48.206;11.550;2023-02-12T10:14:08;97705.59;;;8.07;74.45
6218;BME280;3142;48.206;11.550;2023-02-12T10:16:46;97702.72;;;8.10;74.78
6218;BME280;3142;48.206;11.550;2023-02-12T10:19:33;97696.81;;;8.08;72.94
6218;BME280;3142;48.206;11.550;2023-02-12T10:22:11;97705.19;;;8.01;73.98
6218;BME280;3142;48.206;11.550;2023-02-12T10:24:55;97698.88;;;8.04;74.02
6218;BME280;3142;48.206;11.550;2023-02-12T10:27:35;97698.16;;;7.92;74.25
6218;BME280;3142;48.206;11.550;2023-02-12T10:30:13;97707.34;;;7.87;73.41
6218;BME280;3142;48.206;11.550;2023-02-12T10:32:40;97702.41;;;7.93;74.57
6218;BME280;3142;48.206;11.550;2023-02-12T10:35:12;97696.91;;;7.87;72.80
6218;BME280;3142;48.206;11.550;2023-02-12T10:37:42;97702.09;;;7.77;74.33
6218;BME280;3142;48.206;11.550;2023-02-12T10:40:17;97698.25;;;7.71;74.18
6218;BME280;3142;48.206;11.550;2023-02-12T10:42:48;97702.03;;;7.67;74.10
6218;BME280;3142;48.206;11.550;2023-02-12T10:45:17;97699.72;;;7.64;73.05
6218;BME280;3142;48.206;11.550;2023-02-12T10:47:45;97700.66;;;7.63;73.79
6218;BME280;3142;48.206;11.550;2023-02-12T10:50:18;97698.63;;;7.67;73.26
6218;BME280;3142;48.206;11.550;2023-02-12T10:52:47;97697.56;;;7.79;73.02
6218;BME280;3142;48.206;11.550;2023-02-12T10:55:25;97699.09;;;7.91;73.02
6218;BME280;3142;48.206;11.550;2023-02-12T10:57:54;97700.22;;;7.98;73.28
6218;BME280;3142;48.206;11.550;2023-02-12T11:00:24;97704.75;;;8.06;71.86
6218;BME280;3142;48.206;11.550;2023-02-12T11:03:16;97692.31;;;8.10;71.42
6218;BME280;3142;48.206;11.550;2023-02-12T11:05:43;97692.41;;;8.08;71.76
6218;BME280;3142;48.206;11.550;2023-02-12T11:08:27;97691.50;;;8.09;72.62
6218;BME280;3142;48.206;11.550;2023-02-12T11:10:53;97695.59;;;8.12;71.63
6218;BME280;3142;48.206;11.550;2023-02-12T11:13:25;97687.34;;;8.07;72.07
6218;BME280;3142;48.206;11.550;2023-02-12T11:15:52;97684.34;;;8.11;70.83
6218;BME280;3142;48.206;11.550;2023-02-12T11:18:21;97680.53;;;8.25;70.62
6218;BME280;3142;48.206;11.550;2023-02-12T11:20:52;97674.50;;;8.34;70.49
6218;BME280;3142;48.206;11.550;2023-02-12T11:23:25;97666.16;;;8.50;69.39
6218;BME280;3142;48.206;11.550;2023-02-12T11:25:55;97671.75;;;8.74;70.15
6218;BME280;3142;48.206;11.550;2023-02-12T11:28:24;97667.19;;;9.05;67.59
6218;BME280;3142;48.206;11.550;2023-02-12T11:30:53;97674.75;;;8.99;68.69
6218;BME280;3142;48.206;11.550;2023-02-12T11:33:25;97669.81;;;8.86;68.41
6218;BME280;3142;48.206;11.550;2023-02-12T11:35:53;97664.06;;;8.92;69.19
6218;BME280;3142;48.206;11.550;2023-02-12T11:38:24;97664.44;;;8.87;68.74
6218;BME280;3142;48.206;11.550;2023-02-12T11:40:55;97667.06;;;8.87;67.89
6218;BME280;3142;48.206;11.550;2023-02-12T11:43:25;97671.16;;;8.90;68.06
6218;BME280;3142;48.206;11.550;2023-02-12T11:45:54;97661.97;;;8.96;67.49
6218;BME280;3142;48.206;11.550;2023-02-12T11:48:25;97662.91;;;9.04;68.46
6218;BME280;3142;48.206;11.550;2023-02-12T11:50:54;97664.25;;;9.18;68.48
6218;BME280;3142;48.206;11.550;2023-02-12T11:53:24;97660.94;;;9.16;67.36
6218;BME280;3142;48.206;11.550;2023-02-12T11:55:55;97661.56;;;9.47;66.27
6218;BME280;3142;48.206;11.550;2023-02-12T11:58:25;97654.53;;;9.75;65.73
6218;BME280;3142;48.206;11.550;2023-02-12T12:00:57;97650.97;;;9.94;64.20
6218;BME280;3142;48.206;11.550;2023-02-12T12:03:28;97649.97;;;10.04;63.61
6218;BME280;3142;48.206;11.550;2023-02-12T12:06:01;97649.31;;;10.38;62.99
6218;BME280;3142;48.206;11.550;2023-02-12T12:08:37;97652.75;;;10.38;62.97
6218;BME280;3142;48.206;11.550;2023-02-12T12:11:09;97638.94;;;10.28;63.71
6218;BME280;3142;48.206;11.550;2023-02-12T12:13:43;97642.72;;;10.16;63.25
6218;BME280;3142;48.206;11.550;2023-02-12T12:16:15;97639.88;;;10.09;64.20
6218;BME280;3142;48.206;11.550;2023-02-12T12:19:05;97642.50;;;10.27;63.09
6218;BME280;3142;48.206;11.550;2023-02-12T12:21:57;97639.56;;;10.13;62.32
6218;BME280;3142;48.206;11.550;2023-02-12T12:24:34;97640.34;;;10.23;62.95
6218;BME280;3142;48.206;11.550;2023-02-12T12:27:09;97636.75;;;10.24;63.57
6218;BME280;3142;48.206;11.550;2023-02-12T12:30:04;97635.03;;;10.15;64.24
6218;BME280;3142;48.206;11.550;2023-02-12T12:32:35;97631.19;;;10.09;63.98
6218;BME280;3142;48.206;11.550;2023-02-12T12:35:03;97637.03;;;10.03;64.54
6218;BME280;3142;48.206;11.550;2023-02-12T12:37:33;97633.88;;;9.99;64.85
6218;BME280;3142;48.206;11.550;2023-02-12T12:40:24;97630.75;;;10.14;65.15
6218;BME280;3142;48.206;11.550;2023-02-12T12:43:05;97629.25;;;10.11;65.66
6218;BME280;3142;48.206;11.550;2023-02-12T12:45:58;97630.69;;;10.05;65.61
6218;BME280;3142;48.206;11.550;2023-02-12T12:48:45;97635.13;;;9.95;66.20
6218;BME280;3142;48.206;11.550;2023-02-12T12:51:24;97628.56;;;9.73;65.90
6218;BME280;3142;48.206;11.550;2023-02-12T12:54:05;97635.91;;;9.60;66.35
6218;BME280;3142;48.206;11.550;2023-02-12T12:56:46;97638.53;;;9.60;66.98
6218;BME280;3142;48.206;11.550;2023-02-12T13:08:19;97626.31;;;9.78;67.03
6218;BME280;3142;48.206;11.550;2023-02-12T13:10:55;97616.72;;;10.15;65.53
6218;BME280;3142;48.206;11.550;2023-02-12T13:13:27;97620.81;;;10.17;64.58
6218;BME280;3142;48.206;11.550;2023-02-12T13:16:01;97620.75;;;10.27;64.23
6218;BME280;3142;48.206;11.550;2023-02-12T13:18:39;97617.16;;;10.10;63.92
6218;BME280;3142;48.206;11.550;2023-02-12T13:21:14;97618.31;;;9.98;64.25
6218;BME280;3142;48.206;11.550;2023-02-12T13:23:48;97617.28;;;9.91;65.22
6218;BME280;3142;48.206;11.550;2023-02-12T13:26:22;97615.25;;;9.85;63.50
6218;BME280;3142;48.206;11.550;2023-02-12T13:28:58;97613.81;;;9.72;64.35
6218;BME280;3142;48.206;11.550;2023-02-12T13:31:27;97617.78;;;9.76;64.15
6218;BME280;3142;48.206;11.550;2023-02-12T13:33:59;97618.63;;;9.95;64.92
6218;BME280;3142;48.206;11.550;2023-02-12T13:36:26;97625.09;;;10.18;64.48
6218;BME280;3142;48.206;11.550;2023-02-12T13:38:56;97625.19;;;10.44;64.30
6218;BME280;3142;48.206;11.550;2023-02-12T13:41:25;97620.84;;;10.35;64.56
6218;BME280;3142;48.206;11.550;2023-02-12T13:44:03;97617.63;;;10.23;65.15
6218;BME280;3142;48.206;11.550;2023-02-12T13:46:37;97616.56;;;10.16;65.72